sensor_id;sensor_type;location;lat;lon;timestamp;P1;durP1;ratioP1;P2;durP2;ratioP2
59766;SDS011;46248;58.364;25.582;2022-10-22T00:00:47;3.22;;;2.22;;
59766;SDS011;46248;58.364;25.582;2022-10-22T00:04:11;2.28;;;1.60;;
59766;SDS011;46248;58.364;25.582;2022-10-22T00:07:33;4.22;;;1.80;;
59766;SDS011;46248;58.364;25.582;2022-10-22T00:10:55;2.65;;;1.80;;
59766;SDS011;46248;58.364;25.582;2022-10-22T00:14:18;3.25;;;1.80;;
59766;SDS011;46248;58.364;25.582;2022-10-22T00:17:40;2.35;;;1.85;;
59766;SDS011;46248;58.364;25.582;2022-10-22T00:21:04;2.22;;;1.60;;
59766;SDS011;46248;58.364;25.582;2022-10-22T00:24:26;2.67;;;1.75;;
59766;SDS011;46248;58.364;25.582;2022-10-22T00:27:48;2.05;;;1.70;;
59766;SDS011;46248;58.364;25.582;2022-10-22T00:31:10;2.40;;;1.45;;
59766;SDS011;46248;58.364;25.582;2022-10-22T00:34:32;2.90;;;1.70;;
59766;SDS011;46248;58.364;25.582;2022-10-22T00:37:56;2.95;;;2.63;;
59766;SDS011;46248;58.364;25.582;2022-10-22T00:41:17;2.05;;;1.70;;
59766;SDS011;46248;58.364;25.582;2022-10-22T00:48:37;4.60;;;2.00;;
59766;SDS011;46248;58.364;25.582;2022-10-22T00:51:59;1.67;;;1.38;;
59766;SDS011;46248;58.364;25.582;2022-10-22T00:55:22;2.63;;;1.67;;
59766;SDS011;46248;58.364;25.582;2022-10-22T00:58:46;2.20;;;1.83;;
59766;SDS011;46248;58.364;25.582;2022-10-22T01:02:11;3.08;;;1.75;;
59766;SDS011;46248;58.364;25.582;2022-10-22T01:05:36;2.55;;;1.67;;
59766;SDS011;46248;58.364;25.582;2022-10-22T01:09:03;3.70;;;1.95;;
59766;SDS011;46248;58.364;25.582;2022-10-22T01:12:39;1.50;;;1.23;;
59766;SDS011;46248;58.364;25.582;2022-10-22T01:16:09;2.22;;;1.55;;
59766;SDS011;46248;58.364;25.582;2022-10-22T01:19:39;2.65;;;1.70;;
59766;SDS011;46248;58.364;25.582;2022-10-22T01:23:14;3.33;;;1.67;;
59766;SDS011;46248;58.364;25.582;2022-10-22T01:26:48;2.42;;;1.80;;
59766;SDS011;46248;58.364;25.582;2022-10-22T01:30:22;1.60;;;1.50;;
59766;SDS011;46248;58.364;25.582;2022-10-22T01:33:45;2.50;;;2.25;;
59766;SDS011;46248;58.364;25.582;2022-10-22T01:37:09;1.90;;;1.70;;
59766;SDS011;46248;58.364;25.582;2022-10-22T01:40:34;2.00;;;1.70;;
59766;SDS011;46248;58.364;25.582;2022-10-22T01:43:57;2.38;;;1.67;;
59766;SDS011;46248;58.364;25.582;2022-10-22T01:47:23;3.25;;;2.40;;
59766;SDS011;46248;58.364;25.582;2022-10-22T01:51:00;4.28;;;2.92;;
59766;SDS011;46248;58.364;25.582;2022-10-22T01:54:35;4.32;;;2.70;;
59766;SDS011;46248;58.364;25.582;2022-10-22T01:58:07;4.63;;;2.58;;
59766;SDS011;46248;58.364;25.582;2022-10-22T02:01:40;5.50;;;2.83;;
59766;SDS011;46248;58.364;25.582;2022-10-22T02:05:11;3.33;;;2.40;;
59766;SDS011;46248;58.364;25.582;2022-10-22T02:08:37;4.10;;;2.92;;
59766;SDS011;46248;58.364;25.582;2022-10-22T02:12:00;2.85;;;2.40;;
59766;SDS011;46248;58.364;25.582;2022-10-22T02:15:29;2.28;;;2.05;;
59766;SDS011;46248;58.364;25.582;2022-10-22T02:18:53;3.45;;;2.13;;
59766;SDS011;46248;58.364;25.582;2022-10-22T02:22:20;3.70;;;2.60;;
59766;SDS011;46248;58.364;25.582;2022-10-22T02:25:43;4.70;;;2.83;;
59766;SDS011;46248;58.364;25.582;2022-10-22T02:29:12;6.03;;;3.22;;
59766;SDS011;46248;58.364;25.582;2022-10-22T02:32:40;2.78;;;2.35;;
59766;SDS011;46248;58.364;25.582;2022-10-22T02:36:08;4.40;;;3.05;;
59766;SDS011;46248;58.364;25.582;2022-10-22T02:39:32;2.97;;;2.28;;
59766;SDS011;46248;58.364;25.582;2022-10-22T02:42:56;3.80;;;2.63;;
59766;SDS011;46248;58.364;25.582;2022-10-22T02:46:18;3.88;;;2.60;;
59766;SDS011;46248;58.364;25.582;2022-10-22T02:49:40;3.08;;;2.15;;
59766;SDS011;46248;58.364;25.582;2022-10-22T02:53:02;3.95;;;2.70;;
59766;SDS011;46248;58.364;25.582;2022-10-22T02:56:26;5.28;;;2.58;;
59766;SDS011;46248;58.364;25.582;2022-10-22T02:59:48;3.42;;;2.65;;
59766;SDS011;46248;58.364;25.582;2022-10-22T03:03:10;4.35;;;2.72;;
59766;SDS011;46248;58.364;25.582;2022-10-22T03:06:32;3.65;;;2.33;;
59766;SDS011;46248;58.364;25.582;2022-10-22T03:09:54;2.88;;;2.28;;
59766;SDS011;46248;58.364;25.582;2022-10-22T03:13:17;4.20;;;2.97;;
59766;SDS011;46248;58.364;25.582;2022-10-22T03:16:39;4.20;;;2.90;;
59766;SDS011;46248;58.364;25.582;2022-10-22T03:20:01;4.75;;;2.85;;
59766;SDS011;46248;58.364;25.582;2022-10-22T03:23:23;3.65;;;2.67;;
59766;SDS011;46248;58.364;25.582;2022-10-22T03:26:45;3.95;;;2.67;;
59766;SDS011;46248;58.364;25.582;2022-10-22T03:30:11;4.57;;;2.92;;
59766;SDS011;46248;58.364;25.582;2022-10-22T03:33:33;5.30;;;3.35;;
59766;SDS011;46248;58.364;25.582;2022-10-22T03:36:55;3.10;;;2.58;;
59766;SDS011;46248;58.364;25.582;2022-10-22T03:40:19;4.75;;;2.75;;
59766;SDS011;46248;58.364;25.582;2022-10-22T03:43:41;3.28;;;2.83;;
59766;SDS011;46248;58.364;25.582;2022-10-22T03:47:09;6.55;;;3.65;;
59766;SDS011;46248;58.364;25.582;2022-10-22T03:50:31;3.15;;;2.83;;
59766;SDS011;46248;58.364;25.582;2022-10-22T03:53:53;5.63;;;3.38;;
59766;SDS011;46248;58.364;25.582;2022-10-22T03:57:15;5.85;;;3.78;;
59766;SDS011;46248;58.364;25.582;2022-10-22T04:00:37;4.25;;;3.38;;
59766;SDS011;46248;58.364;25.582;2022-10-22T04:04:00;4.38;;;2.90;;
59766;SDS011;46248;58.364;25.582;2022-10-22T04:07:22;6.75;;;3.28;;
59766;SDS011;46248;58.364;25.582;2022-10-22T04:10:49;4.47;;;3.08;;
59766;SDS011;46248;58.364;25.582;2022-10-22T04:14:11;5.22;;;2.97;;
59766;SDS011;46248;58.364;25.582;2022-10-22T04:17:33;6.35;;;3.40;;
59766;SDS011;46248;58.364;25.582;2022-10-22T04:20:57;5.13;;;3.92;;
59766;SDS011;46248;58.364;25.582;2022-10-22T04:24:19;5.95;;;3.33;;
59766;SDS011;46248;58.364;25.582;2022-10-22T04:27:41;4.35;;;3.25;;
59766;SDS011;46248;58.364;25.582;2022-10-22T04:31:06;5.68;;;3.47;;
59766;SDS011;46248;58.364;25.582;2022-10-22T04:34:29;5.78;;;3.85;;
59766;SDS011;46248;58.364;25.582;2022-10-22T04:37:53;6.10;;;3.95;;
59766;SDS011;46248;58.364;25.582;2022-10-22T04:41:16;6.20;;;3.65;;
59766;SDS011;46248;58.364;25.582;2022-10-22T04:44:39;6.30;;;4.15;;
59766;SDS011;46248;58.364;25.582;2022-10-22T04:48:01;6.60;;;4.07;;
59766;SDS011;46248;58.364;25.582;2022-10-22T04:51:23;6.00;;;4.10;;
59766;SDS011;46248;58.364;25.582;2022-10-22T04:54:48;6.85;;;4.78;;
59766;SDS011;46248;58.364;25.582;2022-10-22T04:58:09;6.82;;;5.13;;
59766;SDS011;46248;58.364;25.582;2022-10-22T05:01:32;7.55;;;4.50;;
59766;SDS011;46248;58.364;25.582;2022-10-22T05:05:02;7.28;;;5.15;;
59766;SDS011;46248;58.364;25.582;2022-10-22T05:08:24;5.15;;;3.65;;
59766;SDS011;46248;58.364;25.582;2022-10-22T05:11:48;8.38;;;4.38;;
59766;SDS011;46248;58.364;25.582;2022-10-22T05:15:12;7.90;;;4.78;;
59766;SDS011;46248;58.364;25.582;2022-10-22T05:18:34;5.50;;;3.83;;
59766;SDS011;46248;58.364;25.582;2022-10-22T05:21:57;6.80;;;4.80;;
59766;SDS011;46248;58.364;25.582;2022-10-22T05:25:20;6.47;;;4.13;;
59766;SDS011;46248;58.364;25.582;2022-10-22T05:28:44;7.57;;;4.65;;
59766;SDS011;46248;58.364;25.582;2022-10-22T05:32:06;8.95;;;4.45;;
59766;SDS011;46248;58.364;25.582;2022-10-22T05:35:28;6.18;;;3.50;;
59766;SDS011;46248;58.364;25.582;2022-10-22T05:38:50;6.82;;;4.10;;
59766;SDS011;46248;58.364;25.582;2022-10-22T05:42:12;8.35;;;4.70;;
59766;SDS011;46248;58.364;25.582;2022-10-22T05:45:36;4.45;;;4.05;;
59766;SDS011;46248;58.364;25.582;2022-10-22T05:48:58;6.65;;;4.00;;
59766;SDS011;46248;58.364;25.582;2022-10-22T05:52:22;5.90;;;3.72;;
59766;SDS011;46248;58.364;25.582;2022-10-22T05:55:44;7.75;;;3.88;;
59766;SDS011;46248;58.364;25.582;2022-10-22T05:59:06;4.72;;;3.20;;
59766;SDS011;46248;58.364;25.582;2022-10-22T06:02:29;5.07;;;3.75;;
59766;SDS011;46248;58.364;25.582;2022-10-22T06:05:51;4.80;;;3.95;;
59766;SDS011;46248;58.364;25.582;2022-10-22T06:09:13;6.97;;;4.18;;
59766;SDS011;46248;58.364;25.582;2022-10-22T06:12:37;5.30;;;3.80;;
59766;SDS011;46248;58.364;25.582;2022-10-22T06:16:00;6.05;;;3.55;;
59766;SDS011;46248;58.364;25.582;2022-10-22T06:19:23;5.35;;;3.95;;
59766;SDS011;46248;58.364;25.582;2022-10-22T06:22:46;4.18;;;3.30;;
59766;SDS011;46248;58.364;25.582;2022-10-22T06:26:08;5.65;;;3.00;;
59766;SDS011;46248;58.364;25.582;2022-10-22T06:29:31;6.32;;;3.90;;
59766;SDS011;46248;58.364;25.582;2022-10-22T06:32:53;3.97;;;3.42;;
59766;SDS011;46248;58.364;25.582;2022-10-22T06:36:18;8.15;;;3.55;;
59766;SDS011;46248;58.364;25.582;2022-10-22T06:39:41;5.20;;;3.42;;
59766;SDS011;46248;58.364;25.582;2022-10-22T06:43:02;4.97;;;3.65;;
59766;SDS011;46248;58.364;25.582;2022-10-22T06:46:25;5.18;;;3.70;;
59766;SDS011;46248;58.364;25.582;2022-10-22T06:49:47;5.88;;;3.78;;
59766;SDS011;46248;58.364;25.582;2022-10-22T06:53:11;4.10;;;2.80;;
59766;SDS011;46248;58.364;25.582;2022-10-22T06:56:33;4.07;;;3.15;;
59766;SDS011;46248;58.364;25.582;2022-10-22T06:59:55;4.40;;;2.97;;
59766;SDS011;46248;58.364;25.582;2022-10-22T07:03:17;2.70;;;2.42;;
59766;SDS011;46248;58.364;25.582;2022-10-22T07:06:39;2.97;;;2.50;;
59766;SDS011;46248;58.364;25.582;2022-10-22T07:10:02;4.82;;;2.72;;
59766;SDS011;46248;58.364;25.582;2022-10-22T07:13:25;3.88;;;2.50;;
59766;SDS011;46248;58.364;25.582;2022-10-22T07:16:47;2.65;;;2.30;;
59766;SDS011;46248;58.364;25.582;2022-10-22T07:20:09;4.03;;;2.47;;
59766;SDS011;46248;58.364;25.582;2022-10-22T07:23:32;2.70;;;2.50;;
59766;SDS011;46248;58.364;25.582;2022-10-22T07:26:56;3.63;;;2.55;;
59766;SDS011;46248;58.364;25.582;2022-10-22T07:30:18;4.32;;;3.42;;
59766;SDS011;46248;58.364;25.582;2022-10-22T07:33:40;3.40;;;3.00;;
59766;SDS011;46248;58.364;25.582;2022-10-22T07:37:01;4.60;;;2.63;;
59766;SDS011;46248;58.364;25.582;2022-10-22T07:40:24;5.30;;;3.17;;
59766;SDS011;46248;58.364;25.582;2022-10-22T07:43:47;5.13;;;2.35;;
59766;SDS011;46248;58.364;25.582;2022-10-22T07:47:09;4.22;;;3.13;;
59766;SDS011;46248;58.364;25.582;2022-10-22T07:50:31;4.55;;;2.55;;
59766;SDS011;46248;58.364;25.582;2022-10-22T07:53:53;5.30;;;3.45;;
59766;SDS011;46248;58.364;25.582;2022-10-22T07:57:15;4.20;;;2.47;;
59766;SDS011;46248;58.364;25.582;2022-10-22T08:00:38;3.60;;;2.60;;
59766;SDS011;46248;58.364;25.582;2022-10-22T08:04:00;2.50;;;2.30;;
59766;SDS011;46248;58.364;25.582;2022-10-22T08:07:22;4.53;;;1.85;;
59766;SDS011;46248;58.364;25.582;2022-10-22T08:10:46;3.25;;;2.35;;
59766;SDS011;46248;58.364;25.582;2022-10-22T08:14:11;3.47;;;2.15;;
59766;SDS011;46248;58.364;25.582;2022-10-22T08:17:35;2.95;;;2.38;;
59766;SDS011;46248;58.364;25.582;2022-10-22T08:20:57;3.17;;;1.90;;
59766;SDS011;46248;58.364;25.582;2022-10-22T08:24:19;2.58;;;2.13;;
59766;SDS011;46248;58.364;25.582;2022-10-22T08:27:41;3.53;;;2.15;;
59766;SDS011;46248;58.364;25.582;2022-10-22T08:31:04;6.10;;;2.38;;
59766;SDS011;46248;58.364;25.582;2022-10-22T08:34:28;2.65;;;1.70;;
59766;SDS011;46248;58.364;25.582;2022-10-22T08:37:50;2.05;;;1.85;;
59766;SDS011;46248;58.364;25.582;2022-10-22T08:41:13;2.28;;;2.15;;
59766;SDS011;46248;58.364;25.582;2022-10-22T08:44:41;2.67;;;1.50;;
59766;SDS011;46248;58.364;25.582;2022-10-22T08:48:21;4.70;;;1.52;;
59766;SDS011;46248;58.364;25.582;2022-10-22T08:51:58;3.95;;;1.70;;
59766;SDS011;46248;58.364;25.582;2022-10-22T08:55:20;2.20;;;1.48;;
59766;SDS011;46248;58.364;25.582;2022-10-22T08:58:46;1.67;;;1.48;;
59766;SDS011;46248;58.364;25.582;2022-10-22T09:02:19;3.33;;;1.25;;
59766;SDS011;46248;58.364;25.582;2022-10-22T09:05:53;2.15;;;1.25;;
59766;SDS011;46248;58.364;25.582;2022-10-22T09:09:21;1.25;;;0.88;;
59766;SDS011;46248;58.364;25.582;2022-10-22T09:12:48;2.20;;;1.10;;
59766;SDS011;46248;58.364;25.582;2022-10-22T09:16:13;1.65;;;1.30;;
59766;SDS011;46248;58.364;25.582;2022-10-22T09:19:40;2.83;;;1.38;;
59766;SDS011;46248;58.364;25.582;2022-10-22T09:23:17;2.35;;;1.58;;
59766;SDS011;46248;58.364;25.582;2022-10-22T09:26:46;2.42;;;1.23;;
59766;SDS011;46248;58.364;25.582;2022-10-22T09:30:10;1.15;;;0.90;;
59766;SDS011;46248;58.364;25.582;2022-10-22T09:33:36;2.22;;;1.30;;
59766;SDS011;46248;58.364;25.582;2022-10-22T09:37:00;1.80;;;1.30;;
59766;SDS011;46248;58.364;25.582;2022-10-22T09:40:23;2.80;;;1.40;;
59766;SDS011;46248;58.364;25.582;2022-10-22T09:43:46;2.60;;;1.50;;
59766;SDS011;46248;58.364;25.582;2022-10-22T09:47:25;2.95;;;1.40;;
59766;SDS011;46248;58.364;25.582;2022-10-22T09:51:04;2.67;;;1.10;;
59766;SDS011;46248;58.364;25.582;2022-10-22T09:54:39;2.80;;;1.40;;
59766;SDS011;46248;58.364;25.582;2022-10-22T09:58:02;1.42;;;1.00;;
59766;SDS011;46248;58.364;25.582;2022-10-22T10:01:26;1.10;;;1.00;;
59766;SDS011;46248;58.364;25.582;2022-10-22T10:04:52;1.15;;;1.00;;
59766;SDS011;46248;58.364;25.582;2022-10-22T10:08:16;9.30;;;3.88;;
59766;SDS011;46248;58.364;25.582;2022-10-22T10:11:40;9.32;;;3.13;;
59766;SDS011;46248;58.364;25.582;2022-10-22T10:15:07;3.80;;;1.80;;
59766;SDS011;46248;58.364;25.582;2022-10-22T10:18:42;12.07;;;4.47;;
59766;SDS011;46248;58.364;25.582;2022-10-22T10:22:17;16.85;;;5.40;;
59766;SDS011;46248;58.364;25.582;2022-10-22T10:25:52;11.98;;;4.03;;
59766;SDS011;46248;58.364;25.582;2022-10-22T10:29:21;6.45;;;3.00;;
59766;SDS011;46248;58.364;25.582;2022-10-22T10:33:02;17.23;;;5.30;;
59766;SDS011;46248;58.364;25.582;2022-10-22T10:36:34;15.27;;;5.20;;
59766;SDS011;46248;58.364;25.582;2022-10-22T10:44:41;5.78;;;2.88;;
59766;SDS011;46248;58.364;25.582;2022-10-22T10:52:10;3.28;;;1.70;;
59766;SDS011;46248;58.364;25.582;2022-10-22T10:55:41;2.10;;;1.40;;
59766;SDS011;46248;58.364;25.582;2022-10-22T10:59:15;2.85;;;1.50;;
59766;SDS011;46248;58.364;25.582;2022-10-22T11:06:37;2.47;;;1.10;;
59766;SDS011;46248;58.364;25.582;2022-10-22T11:10:03;1.80;;;1.20;;
59766;SDS011;46248;58.364;25.582;2022-10-22T11:13:35;1.30;;;1.20;;
59766;SDS011;46248;58.364;25.582;2022-10-22T11:17:02;1.45;;;1.30;;
59766;SDS011;46248;58.364;25.582;2022-10-22T11:20:27;1.92;;;1.10;;
59766;SDS011;46248;58.364;25.582;2022-10-22T11:23:56;1.20;;;0.93;;
59766;SDS011;46248;58.364;25.582;2022-10-22T11:27:30;2.30;;;1.10;;
59766;SDS011;46248;58.364;25.582;2022-10-22T11:30:59;1.88;;;1.20;;
59766;SDS011;46248;58.364;25.582;2022-10-22T11:34:24;0.70;;;0.70;;
59766;SDS011;46248;58.364;25.582;2022-10-22T11:37:53;1.58;;;1.02;;
59766;SDS011;46248;58.364;25.582;2022-10-22T11:41:17;1.83;;;1.10;;
59766;SDS011;46248;58.364;25.582;2022-10-22T11:44:49;2.55;;;1.30;;
59766;SDS011;46248;58.364;25.582;2022-10-22T11:48:19;4.28;;;1.77;;
59766;SDS011;46248;58.364;25.582;2022-10-22T11:51:48;2.80;;;1.60;;
59766;SDS011;46248;58.364;25.582;2022-10-22T11:55:29;2.08;;;1.40;;
59766;SDS011;46248;58.364;25.582;2022-10-22T11:59:11;1.33;;;1.08;;
59766;SDS011;46248;58.364;25.582;2022-10-22T12:03:02;2.97;;;1.67;;
59766;SDS011;46248;58.364;25.582;2022-10-22T12:06:25;2.05;;;1.52;;
59766;SDS011;46248;58.364;25.582;2022-10-22T12:09:48;3.45;;;1.80;;
59766;SDS011;46248;58.364;25.582;2022-10-22T12:16:42;1.02;;;0.88;;
59766;SDS011;46248;58.364;25.582;2022-10-22T12:23:45;1.85;;;0.90;;
59766;SDS011;46248;58.364;25.582;2022-10-22T12:27:14;1.70;;;1.58;;
59766;SDS011;46248;58.364;25.582;2022-10-22T12:30:42;1.08;;;0.98;;
59766;SDS011;46248;58.364;25.582;2022-10-22T12:34:04;2.35;;;1.50;;
59766;SDS011;46248;58.364;25.582;2022-10-22T12:37:28;1.65;;;1.20;;
59766;SDS011;46248;58.364;25.582;2022-10-22T12:40:53;3.38;;;1.15;;
59766;SDS011;46248;58.364;25.582;2022-10-22T12:44:16;2.92;;;1.08;;
59766;SDS011;46248;58.364;25.582;2022-10-22T12:47:39;1.23;;;1.00;;
59766;SDS011;46248;58.364;25.582;2022-10-22T12:51:05;1.98;;;1.30;;
59766;SDS011;46248;58.364;25.582;2022-10-22T12:54:30;2.15;;;1.00;;
59766;SDS011;46248;58.364;25.582;2022-10-22T12:57:54;2.88;;;1.30;;
59766;SDS011;46248;58.364;25.582;2022-10-22T13:01:16;2.70;;;1.60;;
59766;SDS011;46248;58.364;25.582;2022-10-22T13:04:39;4.43;;;1.88;;
59766;SDS011;46248;58.364;25.582;2022-10-22T13:08:01;1.70;;;1.40;;
59766;SDS011;46248;58.364;25.582;2022-10-22T13:11:32;2.08;;;1.27;;
59766;SDS011;46248;58.364;25.582;2022-10-22T13:14:54;1.45;;;1.17;;
59766;SDS011;46248;58.364;25.582;2022-10-22T13:18:16;1.23;;;1.08;;
59766;SDS011;46248;58.364;25.582;2022-10-22T13:21:40;3.75;;;1.50;;
59766;SDS011;46248;58.364;25.582;2022-10-22T13:25:19;5.33;;;2.60;;
59766;SDS011;46248;58.364;25.582;2022-10-22T13:28:50;3.53;;;2.45;;
59766;SDS011;46248;58.364;25.582;2022-10-22T13:32:20;8.18;;;3.47;;
59766;SDS011;46248;58.364;25.582;2022-10-22T13:35:48;3.58;;;2.60;;
59766;SDS011;46248;58.364;25.582;2022-10-22T13:39:11;3.22;;;2.15;;
59766;SDS011;46248;58.364;25.582;2022-10-22T13:42:37;3.70;;;2.10;;
59766;SDS011;46248;58.364;25.582;2022-10-22T13:46:01;4.78;;;2.80;;
59766;SDS011;46248;58.364;25.582;2022-10-22T13:49:23;9.05;;;3.65;;
59766;SDS011;46248;58.364;25.582;2022-10-22T13:52:45;8.38;;;3.25;;
59766;SDS011;46248;58.364;25.582;2022-10-22T13:56:11;4.03;;;2.13;;
59766;SDS011;46248;58.364;25.582;2022-10-22T13:59:35;4.82;;;2.15;;
59766;SDS011;46248;58.364;25.582;2022-10-22T14:02:58;7.53;;;2.92;;
59766;SDS011;46248;58.364;25.582;2022-10-22T14:06:21;38.65;;;6.32;;
59766;SDS011;46248;58.364;25.582;2022-10-22T14:09:47;26.42;;;5.57;;
59766;SDS011;46248;58.364;25.582;2022-10-22T14:13:10;3.55;;;2.28;;
59766;SDS011;46248;58.364;25.582;2022-10-22T14:16:33;7.72;;;2.42;;
59766;SDS011;46248;58.364;25.582;2022-10-22T14:19:58;3.45;;;2.25;;
59766;SDS011;46248;58.364;25.582;2022-10-22T14:23:22;5.72;;;3.03;;
59766;SDS011;46248;58.364;25.582;2022-10-22T14:26:47;5.13;;;2.75;;
59766;SDS011;46248;58.364;25.582;2022-10-22T14:30:12;5.75;;;2.90;;
59766;SDS011;46248;58.364;25.582;2022-10-22T14:33:36;5.15;;;2.65;;
59766;SDS011;46248;58.364;25.582;2022-10-22T14:37:01;4.45;;;2.08;;
59766;SDS011;46248;58.364;25.582;2022-10-22T14:40:25;4.60;;;2.50;;
59766;SDS011;46248;58.364;25.582;2022-10-22T14:43:48;4.55;;;2.50;;
59766;SDS011;46248;58.364;25.582;2022-10-22T14:47:12;5.13;;;2.90;;
59766;SDS011;46248;58.364;25.582;2022-10-22T14:50:34;2.97;;;1.88;;
59766;SDS011;46248;58.364;25.582;2022-10-22T14:53:59;2.83;;;1.83;;
59766;SDS011;46248;58.364;25.582;2022-10-22T14:57:21;3.58;;;1.58;;
59766;SDS011;46248;58.364;25.582;2022-10-22T15:00:44;3.10;;;1.65;;
59766;SDS011;46248;58.364;25.582;2022-10-22T15:04:07;1.77;;;1.40;;
59766;SDS011;46248;58.364;25.582;2022-10-22T15:07:29;5.78;;;2.53;;
59766;SDS011;46248;58.364;25.582;2022-10-22T15:11:01;5.38;;;3.40;;
59766;SDS011;46248;58.364;25.582;2022-10-22T15:14:25;9.23;;;3.70;;
59766;SDS011;46248;58.364;25.582;2022-10-22T15:17:49;13.20;;;6.05;;
59766;SDS011;46248;58.364;25.582;2022-10-22T15:21:13;11.82;;;5.18;;
59766;SDS011;46248;58.364;25.582;2022-10-22T15:24:37;12.25;;;6.18;;
59766;SDS011;46248;58.364;25.582;2022-10-22T15:28:01;15.25;;;5.95;;
59766;SDS011;46248;58.364;25.582;2022-10-22T15:31:43;8.98;;;4.28;;
59766;SDS011;46248;58.364;25.582;2022-10-22T15:35:08;6.15;;;3.15;;
59766;SDS011;46248;58.364;25.582;2022-10-22T15:38:30;6.03;;;2.97;;
59766;SDS011;46248;58.364;25.582;2022-10-22T15:41:53;8.38;;;3.47;;
59766;SDS011;46248;58.364;25.582;2022-10-22T15:45:18;4.25;;;2.40;;
59766;SDS011;46248;58.364;25.582;2022-10-22T15:48:46;5.10;;;2.28;;
59766;SDS011;46248;58.364;25.582;2022-10-22T15:52:09;4.93;;;2.30;;
59766;SDS011;46248;58.364;25.582;2022-10-22T15:55:32;3.35;;;2.53;;
59766;SDS011;46248;58.364;25.582;2022-10-22T15:58:56;3.70;;;2.33;;
59766;SDS011;46248;58.364;25.582;2022-10-22T16:02:22;4.03;;;2.53;;
59766;SDS011;46248;58.364;25.582;2022-10-22T16:05:48;2.92;;;2.63;;
59766;SDS011;46248;58.364;25.582;2022-10-22T16:09:14;4.20;;;2.90;;
59766;SDS011;46248;58.364;25.582;2022-10-22T16:12:39;3.08;;;1.98;;
59766;SDS011;46248;58.364;25.582;2022-10-22T16:16:03;3.50;;;2.20;;
59766;SDS011;46248;58.364;25.582;2022-10-22T16:19:29;4.32;;;2.20;;
59766;SDS011;46248;58.364;25.582;2022-10-22T16:22:53;3.65;;;2.70;;
59766;SDS011;46248;58.364;25.582;2022-10-22T16:26:16;3.78;;;3.00;;
59766;SDS011;46248;58.364;25.582;2022-10-22T16:29:41;3.55;;;2.50;;
59766;SDS011;46248;58.364;25.582;2022-10-22T16:33:05;4.32;;;2.10;;
59766;SDS011;46248;58.364;25.582;2022-10-22T16:36:31;6.35;;;2.63;;
59766;SDS011;46248;58.364;25.582;2022-10-22T16:39:56;4.65;;;2.65;;
59766;SDS011;46248;58.364;25.582;2022-10-22T16:43:25;2.47;;;1.88;;
59766;SDS011;46248;58.364;25.582;2022-10-22T16:46:50;4.05;;;2.47;;
59766;SDS011;46248;58.364;25.582;2022-10-22T16:50:15;5.28;;;2.28;;
59766;SDS011;46248;58.364;25.582;2022-10-22T16:53:39;3.53;;;2.28;;
59766;SDS011;46248;58.364;25.582;2022-10-22T16:57:03;4.70;;;2.55;;
59766;SDS011;46248;58.364;25.582;2022-10-22T17:00:26;3.58;;;2.70;;
59766;SDS011;46248;58.364;25.582;2022-10-22T17:03:50;5.85;;;2.83;;
59766;SDS011;46248;58.364;25.582;2022-10-22T17:07:14;2.58;;;2.20;;
59766;SDS011;46248;58.364;25.582;2022-10-22T17:10:39;3.58;;;2.78;;
59766;SDS011;46248;58.364;25.582;2022-10-22T17:14:03;6.68;;;3.13;;
59766;SDS011;46248;58.364;25.582;2022-10-22T17:17:26;8.27;;;3.15;;
59766;SDS011;46248;58.364;25.582;2022-10-22T17:20:50;85.00;;;10.93;;
59766;SDS011;46248;58.364;25.582;2022-10-22T17:24:16;5.88;;;3.63;;
59766;SDS011;46248;58.364;25.582;2022-10-22T17:27:42;7.60;;;3.85;;
59766;SDS011;46248;58.364;25.582;2022-10-22T17:31:06;9.73;;;4.25;;
59766;SDS011;46248;58.364;25.582;2022-10-22T17:34:32;7.18;;;3.60;;
59766;SDS011;46248;58.364;25.582;2022-10-22T17:37:56;6.75;;;3.45;;
59766;SDS011;46248;58.364;25.582;2022-10-22T17:41:21;6.13;;;3.20;;
59766;SDS011;46248;58.364;25.582;2022-10-22T17:44:47;7.00;;;3.20;;
59766;SDS011;46248;58.364;25.582;2022-10-22T17:48:10;4.40;;;2.95;;
59766;SDS011;46248;58.364;25.582;2022-10-22T17:51:33;4.90;;;3.40;;
59766;SDS011;46248;58.364;25.582;2022-10-22T17:54:56;4.28;;;3.13;;
59766;SDS011;46248;58.364;25.582;2022-10-22T17:58:19;6.22;;;3.72;;
59766;SDS011;46248;58.364;25.582;2022-10-22T18:01:44;6.03;;;3.88;;
59766;SDS011;46248;58.364;25.582;2022-10-22T18:05:08;6.20;;;3.42;;
59766;SDS011;46248;58.364;25.582;2022-10-22T18:08:32;8.52;;;3.70;;
59766;SDS011;46248;58.364;25.582;2022-10-22T18:11:56;4.55;;;3.05;;
59766;SDS011;46248;58.364;25.582;2022-10-22T18:15:19;4.72;;;2.75;;
59766;SDS011;46248;58.364;25.582;2022-10-22T18:18:45;4.68;;;2.90;;
59766;SDS011;46248;58.364;25.582;2022-10-22T18:22:09;3.92;;;2.42;;
59766;SDS011;46248;58.364;25.582;2022-10-22T18:25:32;4.90;;;3.30;;
59766;SDS011;46248;58.364;25.582;2022-10-22T18:29:00;4.40;;;2.50;;
59766;SDS011;46248;58.364;25.582;2022-10-22T18:32:23;7.72;;;3.00;;
59766;SDS011;46248;58.364;25.582;2022-10-22T18:35:47;5.65;;;2.83;;
59766;SDS011;46248;58.364;25.582;2022-10-22T18:39:13;4.63;;;3.00;;
59766;SDS011;46248;58.364;25.582;2022-10-22T18:42:36;5.35;;;2.85;;
59766;SDS011;46248;58.364;25.582;2022-10-22T18:46:01;7.40;;;3.50;;
59766;SDS011;46248;58.364;25.582;2022-10-22T18:49:28;3.35;;;2.75;;
59766;SDS011;46248;58.364;25.582;2022-10-22T18:52:53;3.78;;;2.55;;
59766;SDS011;46248;58.364;25.582;2022-10-22T18:56:16;5.35;;;2.40;;
59766;SDS011;46248;58.364;25.582;2022-10-22T18:59:40;3.53;;;2.70;;
59766;SDS011;46248;58.364;25.582;2022-10-22T19:03:04;4.93;;;3.47;;
59766;SDS011;46248;58.364;25.582;2022-10-22T19:06:29;8.95;;;4.65;;
59766;SDS011;46248;58.364;25.582;2022-10-22T19:09:58;9.32;;;4.47;;
59766;SDS011;46248;58.364;25.582;2022-10-22T19:13:24;7.20;;;4.68;;
59766;SDS011;46248;58.364;25.582;2022-10-22T19:16:49;9.70;;;4.70;;
59766;SDS011;46248;58.364;25.582;2022-10-22T19:20:19;8.23;;;4.20;;
59766;SDS011;46248;58.364;25.582;2022-10-22T19:23:43;6.72;;;4.15;;
59766;SDS011;46248;58.364;25.582;2022-10-22T19:27:10;4.85;;;3.90;;
59766;SDS011;46248;58.364;25.582;2022-10-22T19:30:33;5.68;;;3.80;;
59766;SDS011;46248;58.364;25.582;2022-10-22T19:33:57;8.85;;;4.32;;
59766;SDS011;46248;58.364;25.582;2022-10-22T19:37:22;4.10;;;3.35;;
59766;SDS011;46248;58.364;25.582;2022-10-22T19:40:45;5.68;;;3.50;;
59766;SDS011;46248;58.364;25.582;2022-10-22T19:44:12;3.88;;;3.10;;
59766;SDS011;46248;58.364;25.582;2022-10-22T19:47:36;7.43;;;3.55;;
59766;SDS011;46248;58.364;25.582;2022-10-22T19:51:00;6.75;;;3.13;;
59766;SDS011;46248;58.364;25.582;2022-10-22T19:54:28;4.47;;;3.30;;
59766;SDS011;46248;58.364;25.582;2022-10-22T19:57:51;3.63;;;2.83;;
59766;SDS011;46248;58.364;25.582;2022-10-22T20:01:15;3.90;;;2.88;;
59766;SDS011;46248;58.364;25.582;2022-10-22T20:04:40;5.35;;;3.22;;
59766;SDS011;46248;58.364;25.582;2022-10-22T20:11:33;6.47;;;3.42;;
59766;SDS011;46248;58.364;25.582;2022-10-22T20:14:56;4.38;;;3.03;;
59766;SDS011;46248;58.364;25.582;2022-10-22T20:18:23;4.05;;;2.80;;
59766;SDS011;46248;58.364;25.582;2022-10-22T20:21:46;4.25;;;2.90;;
59766;SDS011;46248;58.364;25.582;2022-10-22T20:25:10;3.53;;;2.83;;
59766;SDS011;46248;58.364;25.582;2022-10-22T20:28:35;3.20;;;2.90;;
59766;SDS011;46248;58.364;25.582;2022-10-22T20:32:00;2.63;;;2.10;;
59766;SDS011;46248;58.364;25.582;2022-10-22T20:35:29;5.03;;;2.65;;
59766;SDS011;46248;58.364;25.582;2022-10-22T20:38:56;4.28;;;2.42;;
59766;SDS011;46248;58.364;25.582;2022-10-22T20:45:45;3.58;;;2.08;;